Time;durP1;ratioP1;P1;durP2;ratioP2;P2;SDS_P1;SDS_P2;PMS_P1;PMS_P2;Temp;Humidity;BMP_temperature;BMP_pressure;BME280_temperature;BME280_humidity;BME280_pressure;Samples;Min_cycle;Max_cycle;Signal;HPM_P1;HPM_P2
2023/06/23 00:01:17;;;;;;;23.60;16.88;;;;;;;17.49;100.00;102074.66;5051511;28;20072;-61
2023/06/23 00:03:45;;;;;;;23.15;18.02;;;;;;;17.43;100.00;102068.63;5050354;28;20112;-61
2023/06/23 00:06:10;;;;;;;28.00;17.25;;;;;;;17.36;100.00;102069.84;5050793;28;20841;-61
2023/06/23 00:08:38;;;;;;;29.02;17.92;;;;;;;17.37;100.00;102066.22;5050818;28;20033;-60
2023/06/23 00:11:03;;;;;;;25.00;18.15;;;;;;;17.32;100.00;102067.38;5050454;28;20075;-61
2023/06/23 00:13:29;;;;;;;29.60;17.67;;;;;;;17.28;100.00;102066.66;5050428;28;20029;-61
2023/06/23 00:15:54;;;;;;;24.52;17.88;;;;;;;17.20;100.00;102064.31;5050629;28;20029;-61
2023/06/23 00:18:22;;;;;;;25.40;18.23;;;;;;;17.15;100.00;102051.19;5016080;28;20086;-61
2023/06/23 00:20:48;;;;;;;29.30;18.53;;;;;;;17.14;100.00;102054.78;5050752;28;20016;-60
2023/06/23 00:23:13;;;;;;;29.90;20.42;;;;;;;17.11;100.00;102044.25;5050299;28;20318;-60
2023/06/23 00:25:39;;;;;;;25.55;20.05;;;;;;;17.07;100.00;102037.34;5050663;28;20021;-61
2023/06/23 00:28:04;;;;;;;29.60;21.60;;;;;;;17.05;100.00;102039.16;5049910;28;20029;-63
2023/06/23 00:30:30;;;;;;;31.52;21.67;;;;;;;17.04;100.00;102051.59;5050209;28;20021;-61
2023/06/23 00:32:55;;;;;;;28.20;21.05;;;;;;;17.08;100.00;102055.03;5049517;28;20049;-60
2023/06/23 00:35:22;;;;;;;37.83;22.25;;;;;;;17.09;100.00;102061.22;5050335;28;20024;-65
2023/06/23 00:37:47;;;;;;;25.70;20.52;;;;;;;17.03;100.00;102054.31;5050276;28;20025;-61
2023/06/23 00:40:13;;;;;;;29.58;20.88;;;;;;;17.01;100.00;102064.19;5063673;28;20064;-60
2023/06/23 00:42:52;;;;;;;34.47;23.45;;;;;;;17.02;100.00;102063.25;5070050;28;20020;-62
2023/06/23 00:45:18;;;;;;;33.28;25.50;;;;;;;17.02;100.00;102060.59;5052975;28;20029;-62
2023/06/23 00:47:44;;;;;;;41.47;28.75;;;;;;;17.03;100.00;102067.63;5069457;28;20023;-61
2023/06/23 00:50:18;;;;;;;42.97;30.17;;;;;;;17.07;100.00;102068.41;5052088;28;20036;-62
2023/06/23 00:52:49;;;;;;;41.70;30.00;;;;;;;17.11;100.00;102075.34;5050155;28;20446;-60
2023/06/23 00:55:17;;;;;;;44.13;30.65;;;;;;;17.09;100.00;102083.38;5049704;28;20017;-61
2023/06/23 00:57:44;;;;;;;45.35;31.65;;;;;;;17.08;100.00;102087.00;5049752;28;20017;-61
2023/06/23 01:00:20;;;;;;;49.50;33.50;;;;;;;17.08;100.00;102097.66;5049204;28;20108;-61
2023/06/23 01:02:49;;;;;;;47.28;32.75;;;;;;;17.12;100.00;102103.69;5049077;28;20151;-63
2023/06/23 01:05:34;;;;;;;50.20;33.65;;;;;;;17.10;100.00;102095.75;5049173;28;20025;-61
2023/06/23 01:08:12;;;;;;;57.22;36.90;;;;;;;17.14;100.00;102091.19;5049433;28;20029;-61
2023/06/23 01:10:49;;;;;;;58.53;37.78;;;;;;;17.12;100.00;102087.72;5048829;28;20040;-60
2023/06/23 01:13:27;;;;;;;57.15;36.75;;;;;;;17.16;100.00;102100.84;5031831;28;20109;-60
2023/06/23 01:16:07;;;;;;;50.95;36.25;;;;;;;17.11;100.00;102097.53;5049664;28;20025;-61
2023/06/23 01:18:37;;;;;;;53.75;36.70;;;;;;;17.06;100.00;102104.78;5048731;28;20461;-61
2023/06/23 01:21:05;;;;;;;62.75;38.15;;;;;;;17.05;100.00;102105.72;5031453;28;20088;-62
2023/06/23 01:23:45;;;;;;;56.93;36.50;;;;;;;17.02;100.00;102106.72;5049285;28;20048;-61
2023/06/23 01:26:22;;;;;;;62.95;38.33;;;;;;;17.03;100.00;102099.59;5081970;23;20418;-61
2023/06/23 01:28:52;;;;;;;56.08;36.85;;;;;;;17.01;100.00;102101.47;5029275;28;20118;-61
2023/06/23 01:31:35;;;;;;;69.28;40.63;;;;;;;17.01;100.00;102101.47;5012003;28;20033;-61
2023/06/23 01:34:06;;;;;;;65.78;39.92;;;;;;;17.01;100.00;102112.13;5028490;28;20065;-61
2023/06/23 01:36:41;;;;;;;66.05;38.97;;;;;;;17.01;100.00;102112.13;5029330;28;20108;-61
2023/06/23 01:39:08;;;;;;;60.10;38.75;;;;;;;16.96;100.00;102114.09;5028959;28;20040;-61
2023/06/23 01:41:42;;;;;;;63.27;39.40;;;;;;;16.93;100.00;102109.75;5011711;28;20069;-61
2023/06/23 01:44:13;;;;;;;74.40;41.55;;;;;;;16.93;100.00;102120.41;5011527;28;20052;-61
2023/06/23 01:46:42;;;;;;;69.68;38.90;;;;;;;16.89;100.00;102117.00;5028760;28;20018;-62
2023/06/23 01:49:11;;;;;;;65.13;38.42;;;;;;;16.83;100.00;102125.25;5011534;28;20041;-62
2023/06/23 01:51:40;;;;;;;65.93;38.05;;;;;;;16.75;100.00;102122.00;5011132;28;20053;-62
2023/06/23 01:54:06;;;;;;;64.55;37.72;;;;;;;16.76;100.00;102126.38;5011041;28;20087;-61
2023/06/23 01:56:32;;;;;;;67.03;39.75;;;;;;;16.75;100.00;102130.00;5029158;28;20362;-60
2023/06/23 01:58:58;;;;;;;66.90;39.33;;;;;;;16.76;100.00;102134.38;4994530;28;20021;-61
2023/06/23 02:01:24;;;;;;;64.15;38.72;;;;;;;16.77;100.00;102147.63;5011048;28;20021;-61
2023/06/23 02:03:50;;;;;;;65.93;40.58;;;;;;;16.80;100.00;102154.66;5010854;28;20029;-61
2023/06/23 02:06:16;;;;;;;77.32;43.28;;;;;;;16.75;100.00;102156.59;5011464;28;20111;-62
2023/06/23 02:08:42;;;;;;;69.10;39.28;;;;;;;16.81;100.00;102161.69;5010742;28;20022;-61
2023/06/23 02:11:09;;;;;;;74.47;39.83;;;;;;;16.85;100.00;102159.75;4998109;28;20041;-60
2023/06/23 02:13:35;;;;;;;71.35;41.47;;;;;;;16.88;100.00;102171.16;4991132;28;20022;-61
2023/06/23 02:16:01;;;;;;;68.00;39.17;;;;;;;16.87;100.00;102169.44;4990673;28;20036;-61
2023/06/23 02:18:27;;;;;;;74.88;42.50;;;;;;;16.89;100.00;102174.72;4990159;28;20112;-61
2023/06/23 02:20:53;;;;;;;73.82;41.80;;;;;;;16.87;100.00;102166.78;5008205;28;20550;-60
2023/06/23 02:23:19;;;;;;;78.40;43.22;;;;;;;16.95;100.00;102173.59;4992321;28;20087;-62
2023/06/23 02:25:45;;;;;;;80.72;42.70;;;;;;;16.95;100.00;102179.78;4999135;28;20053;-61
2023/06/23 02:28:11;;;;;;;72.60;41.95;;;;;;;16.95;100.00;102192.22;5018659;28;20057;-61
2023/06/23 02:30:38;;;;;;;72.45;40.60;;;;;;;16.91;100.00;102192.34;5009909;28;20219;-61
2023/06/23 02:33:04;;;;;;;78.22;43.58;;;;;;;16.95;100.00;102192.22;5008594;28;20025;-61
2023/06/23 02:35:30;;;;;;;85.10;44.08;;;;;;;16.99;100.00;102191.16;5010351;28;20356;-60
2023/06/23 02:37:59;;;;;;;82.68;43.35;;;;;;;16.99;100.00;102183.19;5027471;28;20075;-61
2023/06/23 02:40:25;;;;;;;86.13;44.03;;;;;;;16.99;100.00;102184.06;5009752;28;20045;-61
2023/06/23 02:43:02;;;;;;;80.30;40.90;;;;;;;17.03;100.00;102185.66;5027593;28;20366;-63
2023/06/23 02:45:33;;;;;;;80.95;42.95;;;;;;;17.04;100.00;102191.88;5027900;28;20029;-61
2023/06/23 02:48:00;;;;;;;80.53;43.90;;;;;;;17.09;100.00;102186.38;5009161;28;20585;-60
2023/06/23 02:50:32;;;;;;;82.00;43.78;;;;;;;17.04;100.00;102181.22;5010139;28;20026;-62
2023/06/23 02:53:05;;;;;;;79.43;42.30;;;;;;;17.04;100.00;102191.88;5009776;28;20064;-59
2023/06/23 02:55:31;;;;;;;79.30;42.15;;;;;;;17.08;100.00;102188.19;5011714;28;20028;-61
2023/06/23 02:57:57;;;;;;;79.68;42.47;;;;;;;17.07;100.00;102197.09;5010173;28;20351;-60
2023/06/23 03:00:23;;;;;;;81.25;41.72;;;;;;;17.08;100.00;102193.50;4986267;28;20048;-60
2023/06/23 03:03:00;;;;;;;83.10;43.50;;;;;;;17.07;100.00;102199.78;4990964;28;20022;-61
2023/06/23 03:05:26;;;;;;;74.68;39.95;;;;;;;17.03;100.00;102200.75;5009906;28;20104;-61
2023/06/23 03:07:52;;;;;;;79.30;40.15;;;;;;;17.01;100.00;102207.97;5027577;28;20021;-61
2023/06/23 03:10:18;;;;;;;73.32;39.00;;;;;;;16.98;100.00;102210.75;5027747;28;20083;-61
2023/06/23 03:12:44;;;;;;;76.93;40.72;;;;;;;16.98;100.00;102213.41;5024954;28;20021;-61
2023/06/23 03:15:11;;;;;;;85.10;42.05;;;;;;;17.01;100.00;102213.28;4999542;28;20034;-62
2023/06/23 03:17:38;;;;;;;82.05;44.17;;;;;;;16.97;100.00;102224.97;5008922;28;20026;-64
2023/06/23 03:20:07;;;;;;;86.57;43.50;;;;;;;17.01;100.00;102223.94;5027939;28;20017;-61
2023/06/23 03:22:54;;;;;;;86.18;44.33;;;;;;;17.01;100.00;102221.28;5027392;28;20037;-61
2023/06/23 03:25:22;;;;;;;81.68;42.30;;;;;;;17.01;100.00;102223.94;5009384;28;20099;-64
2023/06/23 03:27:49;;;;;;;84.63;43.28;;;;;;;17.02;100.00;102221.22;5010418;28;20029;-61
2023/06/23 03:30:20;;;;;;;84.90;43.40;;;;;;;17.03;100.00;102224.72;5006527;28;20026;-63
2023/06/23 03:32:51;;;;;;;90.43;46.60;;;;;;;17.03;100.00;102225.59;5000079;28;20021;-61
2023/06/23 03:35:20;;;;;;;89.63;47.05;;;;;;;17.02;100.00;102231.00;5013370;28;20105;-61
2023/06/23 03:37:47;;;;;;;;;;;;;;;17.11;100.00;102233.34;5014441;28;20371;-61
2023/06/23 03:40:14;;;;;;;94.10;48.88;;;;;;;17.07;100.00;102239.72;5012944;28;19957;-61
2023/06/23 03:42:44;;;;;;;95.80;48.50;;;;;;;17.05;100.00;102239.75;5013439;28;20049;-64
2023/06/23 03:45:11;;;;;;;95.22;47.83;;;;;;;17.06;100.00;102243.25;5013031;28;20025;-61
2023/06/23 03:47:39;;;;;;;91.47;48.00;;;;;;;17.09;100.00;102243.16;5012585;28;20462;-64
2023/06/23 03:50:10;;;;;;;97.53;48.40;;;;;;;17.14;100.00;102249.19;5011314;28;20036;-61
2023/06/23 03:52:37;;;;;;;94.75;48.60;;;;;;;17.20;100.00;102248.06;5003351;28;20029;-62
2023/06/23 03:55:06;;;;;;;91.72;46.25;;;;;;;17.21;100.00;102247.13;5013299;28;20087;-62
2023/06/23 03:57:31;;;;;;;94.57;47.30;;;;;;;17.26;100.00;102246.97;5013242;28;20411;-61
2023/06/23 03:59:57;;;;;;;82.75;44.75;;;;;;;17.27;100.00;102243.34;5013310;28;20021;-61
2023/06/23 04:02:24;;;;;;;78.40;43.70;;;;;;;17.30;100.00;102253.88;5012920;28;20041;-61
2023/06/23 04:04:54;;;;;;;83.68;43.95;;;;;;;17.32;100.00;102253.84;5013124;28;20032;-60
2023/06/23 04:07:20;;;;;;;77.88;41.58;;;;;;;17.39;100.00;102250.00;5013791;28;20026;-60
2023/06/23 04:09:47;;;;;;;78.50;44.17;;;;;;;17.36;100.00;102253.66;5013683;28;20580;-60
2023/06/23 04:12:15;;;;;;;82.18;42.58;;;;;;;17.42;100.00;102255.19;5026176;28;20076;-61
2023/06/23 04:14:42;;;;;;;76.65;42.45;;;;;;;17.46;100.00;102258.63;5004137;28;20167;-61
2023/06/23 04:17:12;;;;;;;74.75;40.60;;;;;;;17.46;100.00;102256.78;5001155;28;20026;-65
2023/06/23 04:19:39;;;;;;;76.85;41.25;;;;;;;17.37;100.00;102254.53;4993814;28;20026;-61
2023/06/23 04:22:06;;;;;;;77.55;41.22;;;;;;;17.39;100.00;102256.19;5016090;28;20039;-61
2023/06/23 04:24:33;;;;;;;70.97;40.03;;;;;;;17.37;100.00;102257.19;5008078;28;20050;-60
2023/06/23 04:26:59;;;;;;;72.60;41.10;;;;;;;17.45;100.00;102256.88;5008607;28;20069;-60
2023/06/23 04:29:25;;;;;;;75.05;40.65;;;;;;;17.50;100.00;102265.56;5001029;28;20049;-60
2023/06/23 04:31:51;;;;;;;73.22;41.10;;;;;;;17.52;100.00;102266.38;5011514;28;20034;-64
2023/06/23 04:34:16;;;;;;;74.63;41.92;;;;;;;17.56;100.00;102273.31;5012686;28;20025;-59
2023/06/23 04:36:52;;;;;;;64.57;40.67;;;;;;;17.67;100.00;102271.06;5012198;28;20453;-64
2023/06/23 04:39:27;;;;;;;67.85;39.80;;;;;;;17.78;100.00;102277.72;5003217;28;20034;-60
2023/06/23 04:41:56;;;;;;;73.57;41.78;;;;;;;17.81;100.00;102278.47;5010078;28;20093;-61
2023/06/23 04:44:26;;;;;;;70.20;40.90;;;;;;;17.86;100.00;102280.97;5029873;28;20021;-61
2023/06/23 04:46:52;;;;;;;65.18;40.15;;;;;;;17.92;100.00;102283.38;5011554;28;20155;-60
2023/06/23 04:49:20;;;;;;;68.25;41.55;;;;;;;18.06;100.00;102287.22;5012323;28;20025;-60
2023/06/23 04:51:48;;;;;;;64.43;40.50;;;;;;;18.11;100.00;102295.94;5011941;28;20033;-59
2023/06/23 04:54:29;;;;;;;68.30;39.78;;;;;;;18.17;100.00;102295.69;5028421;28;20029;-62
2023/06/23 04:57:01;;;;;;;67.85;38.70;;;;;;;18.31;100.00;102294.22;5011413;28;20401;-59
2023/06/23 04:59:31;;;;;;;59.78;37.95;;;;;;;18.44;100.00;102286.53;5012524;28;20018;-64
2023/06/23 05:01:57;;;;;;;61.00;37.67;;;;;;;18.52;100.00;102284.41;4990266;28;20052;-59
2023/06/23 05:04:23;;;;;;;60.15;37.70;;;;;;;18.52;100.00;102284.41;4999974;28;20033;-60
2023/06/23 05:06:49;;;;;;;62.50;37.08;;;;;;;18.55;100.00;102288.72;5029236;28;20029;-59
2023/06/23 05:09:15;;;;;;;58.50;37.10;;;;;;;18.56;100.00;102288.66;5011771;28;20108;-60
2023/06/23 05:11:42;;;;;;;59.78;37.08;;;;;;;18.61;100.00;102288.47;5029129;28;20422;-63
2023/06/23 05:14:07;;;;;;;57.80;35.47;;;;;;;18.58;100.00;102291.25;5010906;28;20032;-61
2023/06/23 05:16:34;;;;;;;59.78;36.17;;;;;;;18.68;100.00;102300.59;5010460;28;20445;-61
2023/06/23 05:19:01;;;;;;;59.47;36.50;;;;;;;18.68;100.00;102303.25;5027098;28;20474;-61
2023/06/23 05:21:27;;;;;;;57.33;36.92;;;;;;;18.75;100.00;102300.31;4992478;28;20113;-62
2023/06/23 05:23:54;;;;;;;53.80;35.55;;;;;;;18.81;100.00;102305.34;5007608;28;20544;-61
2023/06/23 05:26:20;;;;;;;58.80;37.58;;;;;;;18.82;100.00;102309.78;4991325;28;20048;-60
2023/06/23 05:28:46;;;;;;;54.55;37.15;;;;;;;18.87;100.00;102320.25;4992452;28;20026;-62
2023/06/23 05:31:13;;;;;;;53.38;35.90;;;;;;;18.92;100.00;102323.56;4989730;28;20068;-61
2023/06/23 05:33:41;;;;;;;54.50;36.30;;;;;;;18.99;100.00;102324.16;4991564;28;20036;-61
2023/06/23 05:36:09;;;;;;;51.28;35.05;;;;;;;19.09;100.00;102324.63;5025775;28;20029;-62
2023/06/23 05:38:36;;;;;;;48.50;33.95;;;;;;;19.23;100.00;102334.69;5008545;28;20109;-62
2023/06/23 05:41:02;;;;;;;46.47;32.13;;;;;;;19.32;100.00;102332.44;4993413;28;20026;-61
2023/06/23 05:43:27;;;;;;;50.05;31.13;;;;;;;19.41;100.00;102330.22;5023649;28;20041;-60
2023/06/23 05:45:54;;;;;;;45.47;30.67;;;;;;;19.56;100.00;102344.66;5018190;28;20061;-61
2023/06/23 05:48:36;;;;;;;41.25;27.77;;;;;;;19.67;100.00;102347.72;5006571;28;20080;-60
2023/06/23 05:51:05;;;;;;;40.65;26.30;;;;;;;19.74;100.00;102344.75;5001518;28;20420;-59
2023/06/23 05:53:31;;;;;;;35.88;25.17;;;;;;;19.79;100.00;102338.22;5013222;28;20037;-60
2023/06/23 05:56:04;;;;;;;32.95;24.25;;;;;;;19.89;100.00;102345.75;5005882;28;20025;-60
2023/06/23 05:58:33;;;;;;;32.28;22.17;;;;;;;19.94;100.00;102349.97;5013858;28;20080;-62
2023/06/23 06:01:00;;;;;;;27.13;21.08;;;;;;;20.00;100.00;102340.75;5002751;28;20021;-63
2023/06/23 06:03:41;;;;;;;27.83;20.50;;;;;;;20.11;100.00;102345.63;5010212;28;20033;-60
2023/06/23 06:06:07;;;;;;;28.88;19.85;;;;;;;20.11;100.00;102350.09;4997741;28;20053;-60
2023/06/23 06:08:34;;;;;;;27.55;19.27;;;;;;;20.13;100.00;102353.53;4995845;28;20045;-61
2023/06/23 06:11:00;;;;;;;30.20;19.45;;;;;;;20.13;100.00;102358.88;5014796;28;20032;-61
2023/06/23 06:13:27;;;;;;;23.27;17.85;;;;;;;20.04;100.00;102361.09;4997933;28;20520;-60
2023/06/23 06:15:53;;;;;;;22.52;17.17;;;;;;;19.95;100.00;102361.50;4996395;28;20045;-60
2023/06/23 06:18:19;;;;;;;26.50;17.70;;;;;;;19.95;100.00;102361.50;5016722;28;20021;-60
2023/06/23 06:20:46;;;;;;;25.02;17.95;;;;;;;19.91;100.00;102359.94;5016622;28;20437;-61
2023/06/23 06:23:12;;;;;;;26.20;17.92;;;;;;;19.99;100.00;102368.47;5000774;28;20021;-64
2023/06/23 06:25:38;;;;;;;22.23;16.88;;;;;;;19.87;100.00;102367.25;5012546;28;20121;-62
2023/06/23 06:28:06;;;;;;;19.60;15.60;;;;;;;20.06;100.00;102369.03;5007208;28;20108;-62
2023/06/23 06:30:31;;;;;;;19.77;15.38;;;;;;;19.99;100.00;102363.13;5014701;28;20017;-62
2023/06/23 06:33:00;;;;;;;18.85;13.70;;;;;;;20.09;100.00;102368.91;5006097;28;20379;-62
2023/06/23 06:35:26;;;;;;;16.50;11.68;;;;;;;20.08;100.00;102373.38;5008745;28;20513;-62
2023/06/23 06:37:51;;;;;;;14.77;12.10;;;;;;;19.98;100.00;102374.75;5000660;28;20395;-61
2023/06/23 06:40:22;;;;;;;14.93;11.23;;;;;;;19.92;100.00;102378.59;5001270;28;20014;-60
2023/06/23 06:42:47;;;;;;;15.63;10.85;;;;;;;19.98;100.00;102376.56;5017699;28;20053;-61
2023/06/23 06:45:13;;;;;;;13.43;11.02;;;;;;;20.08;100.00;102383.22;4998111;28;20053;-61
2023/06/23 06:47:43;;;;;;;13.45;10.98;;;;;;;20.11;100.00;102382.19;4988646;28;20159;-60
2023/06/23 06:50:13;;;;;;;16.45;12.15;;;;;;;20.18;100.00;102399.66;5006302;28;20034;-61
2023/06/23 06:52:39;;;;;;;15.52;12.00;;;;;;;20.26;100.00;102392.09;4989835;28;20117;-62
2023/06/23 06:55:05;;;;;;;15.18;12.40;;;;;;;20.31;100.00;102389.19;4989671;28;20022;-61
2023/06/23 06:57:31;;;;;;;19.83;12.85;;;;;;;20.41;100.00;102398.50;5007366;28;20030;-61
2023/06/23 06:59:56;;;;;;;14.55;11.20;;;;;;;20.45;100.00;102397.41;4988418;28;20036;-61
2023/06/23 07:02:24;;;;;;;14.07;11.55;;;;;;;20.48;100.00;102392.81;5006685;28;20501;-60
2023/06/23 07:04:49;;;;;;;12.50;10.50;;;;;;;20.43;100.00;102388.59;5006510;28;20018;-62
2023/06/23 07:07:15;;;;;;;12.95;9.82;;;;;;;20.62;100.00;102389.44;5006602;28;20022;-61
2023/06/23 07:09:40;;;;;;;10.98;9.00;;;;;;;20.70;100.00;102384.53;5006299;28;20030;-61
2023/06/23 07:12:06;;;;;;;13.98;9.70;;;;;;;20.78;100.00;102392.19;5014932;28;20473;-61
2023/06/23 07:14:32;;;;;;;11.23;8.88;;;;;;;20.91;100.00;102397.78;5026914;28;20032;-61
2023/06/23 07:16:57;;;;;;;11.38;9.25;;;;;;;20.98;100.00;102403.69;5026016;28;20527;-61
2023/06/23 07:19:22;;;;;;;14.15;10.38;;;;;;;21.01;100.00;102398.16;5026859;28;20032;-61
2023/06/23 07:21:48;;;;;;;12.00;9.35;;;;;;;21.02;100.00;102403.44;5016491;28;20461;-62
2023/06/23 07:24:13;;;;;;;10.80;8.38;;;;;;;21.10;100.00;102397.63;5014315;28;20026;-60
2023/06/23 07:26:40;;;;;;;11.02;8.55;;;;;;;21.15;100.00;102400.94;5014857;28;20022;-61
2023/06/23 07:29:05;;;;;;;12.38;10.05;;;;;;;21.08;100.00;102412.97;5014279;28;20022;-62
2023/06/23 07:31:31;;;;;;;11.13;8.27;;;;;;;21.17;100.00;102417.81;5015465;28;20037;-60
2023/06/23 07:33:57;;;;;;;11.38;7.55;;;;;;;21.26;100.00;102412.91;5015051;28;20014;-61
2023/06/23 07:36:22;;;;;;;11.50;7.22;;;;;;;21.32;100.00;102412.56;5017346;28;20036;-61
2023/06/23 07:38:48;;;;;;;9.90;7.13;;;;;;;21.30;100.00;102409.97;5019306;28;20057;-61
2023/06/23 07:41:13;;;;;;;13.02;7.40;;;;;;;21.38;100.00;102411.34;5012676;28;20022;-62
2023/06/23 07:43:43;;;;;;;12.30;6.63;;;;;;;21.50;100.00;102416.06;4983254;28;20024;-61
2023/06/23 07:46:09;;;;;;;13.60;7.13;;;;;;;21.54;100.00;102416.72;5016523;28;20046;-62
2023/06/23 07:48:35;;;;;;;8.05;6.68;;;;;;;21.53;100.00;102415.00;5013514;28;20021;-62
2023/06/23 07:51:00;;;;;;;10.57;7.20;;;;;;;21.64;100.00;102428.66;5013217;28;20022;-61
2023/06/23 07:53:25;;;;;;;9.32;7.22;;;;;;;21.71;100.00;102423.84;5014015;28;20526;-61
2023/06/23 07:55:51;;;;;;;12.00;8.02;;;;;;;21.69;100.00;102428.41;5013486;28;20033;-63
2023/06/23 07:58:16;;;;;;;8.25;6.93;;;;;;;21.82;100.00;102431.28;5013123;28;20022;-60
2023/06/23 08:00:42;;;;;;;9.70;6.78;;;;;;;21.77;100.00;102428.03;5011732;28;20025;-60
2023/06/23 08:03:07;;;;;;;11.93;7.00;;;;;;;21.82;100.00;102428.59;5024835;28;20068;-59
2023/06/23 08:05:33;;;;;;;10.20;7.30;;;;;;;21.79;100.00;102423.44;5023549;28;20026;-60
2023/06/23 08:07:58;;;;;;;8.75;6.72;;;;;;;21.83;100.00;102427.69;5024656;28;20167;-60
2023/06/23 08:10:23;;;;;;;10.93;7.72;;;;;;;21.92;100.00;102424.47;5025035;28;20044;-60
2023/06/23 08:12:49;;;;;;;17.65;9.07;;;;;;;22.03;100.00;102433.72;5025393;28;20112;-59
2023/06/23 08:15:14;;;;;;;10.55;8.05;;;;;;;21.99;100.00;102429.47;5025996;28;20021;-61
2023/06/23 08:17:40;;;;;;;10.43;7.13;;;;;;;22.05;100.00;102439.84;5024583;28;20029;-60
2023/06/23 08:20:06;;;;;;;16.25;7.60;;;;;;;22.00;100.00;102441.94;5025785;28;20022;-60
2023/06/23 08:22:31;;;;;;;11.30;7.60;;;;;;;22.11;100.00;102447.56;5029188;28;20040;-62
2023/06/23 08:24:57;;;;;;;8.77;6.97;;;;;;;21.95;100.00;102447.56;5028630;28;20044;-60
2023/06/23 08:27:22;;;;;;;9.93;6.85;;;;;;;22.06;100.00;102439.75;5028500;28;20116;-59
2023/06/23 08:29:47;;;;;;;12.82;6.93;;;;;;;22.08;100.00;102442.34;5028099;28;20032;-61
2023/06/23 08:32:13;;;;;;;10.10;6.35;;;;;;;21.97;100.00;102451.03;5025957;28;20026;-62
2023/06/23 08:34:38;;;;;;;7.38;5.80;;;;;;;22.10;100.00;102448.53;5029325;28;20109;-61
2023/06/23 08:37:04;;;;;;;16.23;7.90;;;;;;;22.09;100.00;102457.50;5028448;28;20045;-61
2023/06/23 08:39:30;;;;;;;8.13;5.68;;;;;;;22.12;100.00;102449.28;5029432;28;20034;-63
2023/06/23 08:41:58;;;;;;;9.00;5.45;;;;;;;22.25;100.00;102453.94;5002583;28;20025;-60
2023/06/23 08:44:24;;;;;;;30.67;8.82;;;;;;;22.20;100.00;102452.41;5007052;28;20390;-61
2023/06/23 08:46:56;;;;;;;8.10;5.70;;;;;;;22.25;100.00;102454.81;5029551;28;20029;-65
2023/06/23 08:49:22;;;;;;;9.45;5.30;;;;;;;22.16;100.00;102450.84;5029989;28;20021;-62
2023/06/23 08:51:48;;;;;;;11.07;6.22;;;;;;;22.45;100.00;102459.00;5030673;28;20044;-61
2023/06/23 08:54:14;;;;;;;16.35;6.68;;;;;;;22.36;100.00;102467.59;5022818;28;20034;-60
2023/06/23 08:56:40;;;;;;;10.25;5.70;;;;;;;22.34;100.00;102467.69;5019851;28;20021;-63
2023/06/23 08:59:05;;;;;;;8.70;5.97;;;;;;;22.49;100.00;102472.25;5020156;28;20014;-61
2023/06/23 09:01:31;;;;;;;8.98;5.60;;;;;;;22.55;100.00;102474.56;5017902;28;20076;-60
2023/06/23 09:03:56;;;;;;;9.63;5.22;;;;;;;22.56;100.00;102473.59;5016507;28;20117;-60
2023/06/23 09:06:21;;;;;;;7.30;4.70;;;;;;;22.62;100.00;102475.97;5013884;28;20053;-61
2023/06/23 09:08:47;;;;;;;4.97;4.47;;;;;;;22.67;100.00;102470.31;5025055;28;20022;-60
2023/06/23 09:11:13;;;;;;;7.05;5.70;;;;;;;22.68;100.00;102470.25;5019779;28;20033;-61
2023/06/23 09:13:41;;;;;;;7.18;5.15;;;;;;;22.69;100.00;102473.75;5019745;28;20455;-61
2023/06/23 09:16:09;;;;;;;6.53;4.38;;;;;;;22.85;99.10;102473.72;5010620;28;20032;-62
2023/06/23 09:18:38;;;;;;;4.95;4.15;;;;;;;22.93;100.00;102475.94;5009545;28;20033;-61
2023/06/23 09:21:05;;;;;;;7.43;4.32;;;;;;;22.93;96.03;102482.19;5013402;28;20032;-61
2023/06/23 09:23:33;;;;;;;21.05;7.60;;;;;;;23.06;97.98;102478.75;5018459;28;20022;-60
2023/06/23 09:25:59;;;;;;;9.90;5.25;;;;;;;23.15;100.00;102480.84;5004371;28;20045;-60
2023/06/23 09:28:28;;;;;;;9.38;4.78;;;;;;;23.22;99.56;102482.22;5017026;28;20508;-61
2023/06/23 09:30:56;;;;;;;5.32;4.82;;;;;;;23.12;98.81;102480.19;5009943;28;20026;-60
2023/06/23 09:33:22;;;;;;;10.00;5.73;;;;;;;23.20;99.84;102486.81;4995416;28;20118;-62
2023/06/23 09:35:49;;;;;;;6.53;4.65;;;;;;;23.18;98.37;102480.66;5005407;28;20773;-62
2023/06/23 09:38:21;;;;;;;7.45;4.35;;;;;;;23.35;98.98;102484.13;5011131;28;20347;-61
2023/06/23 09:40:46;;;;;;;8.38;4.88;;;;;;;23.50;95.62;102484.16;5013790;28;20047;-61
2023/06/23 09:43:13;;;;;;;4.80;4.15;;;;;;;23.54;95.12;102483.00;5011110;28;20033;-61
2023/06/23 09:45:38;;;;;;;6.07;4.30;;;;;;;23.56;95.98;102491.81;5009844;28;20033;-61
2023/06/23 09:48:05;;;;;;;4.22;3.80;;;;;;;23.68;93.01;102491.06;5017526;28;20218;-63
2023/06/23 09:50:30;;;;;;;4.47;3.20;;;;;;;23.65;86.86;102491.25;5001404;28;20025;-61
2023/06/23 09:53:04;;;;;;;8.50;3.30;;;;;;;23.80;85.96;102489.41;5016877;28;20397;-60
2023/06/23 09:55:30;;;;;;;5.38;3.63;;;;;;;23.88;89.00;102491.59;4998584;28;20359;-60
2023/06/23 09:57:56;;;;;;;6.18;3.55;;;;;;;23.98;89.13;102487.34;5019583;28;20385;-60
2023/06/23 10:00:32;;;;;;;7.35;3.85;;;;;;;24.12;85.76;102507.09;5019980;28;20030;-60
2023/06/23 10:02:59;;;;;;;3.85;3.42;;;;;;;24.10;86.09;102503.63;5022857;28;20049;-61
2023/06/23 10:05:24;;;;;;;3.80;3.35;;;;;;;24.32;82.88;102497.72;5013000;28;20022;-60
2023/06/23 10:08:04;;;;;;;6.00;3.60;;;;;;;24.35;83.57;102485.91;5009345;28;20037;-60
2023/06/23 10:10:30;;;;;;;7.28;3.30;;;;;;;24.45;85.04;102487.00;5014581;28;20018;-61
2023/06/23 10:12:55;;;;;;;4.28;3.25;;;;;;;24.49;86.17;102490.34;5013373;28;20497;-63
2023/06/23 10:15:22;;;;;;;5.40;3.40;;;;;;;24.68;85.05;102498.03;5016330;28;20029;-61
2023/06/23 10:17:48;;;;;;;6.10;3.50;;;;;;;24.69;84.49;102488.13;4999214;28;20033;-63
2023/06/23 10:20:13;;;;;;;7.85;3.40;;;;;;;24.87;83.54;102491.41;5012592;28;20040;-63
2023/06/23 10:22:39;;;;;;;8.10;3.90;;;;;;;24.83;83.89;102493.41;5015554;28;20048;-60
2023/06/23 10:25:09;;;;;;;5.18;3.55;;;;;;;25.07;81.66;102483.78;5014862;28;20065;-60
2023/06/23 10:27:35;;;;;;;3.78;3.47;;;;;;;25.08;80.82;102482.81;5007572;28;20044;-60
2023/06/23 10:30:02;;;;;;;6.97;2.83;;;;;;;25.18;76.18;102483.00;5008061;28;20644;-61
2023/06/23 10:32:33;;;;;;;6.47;3.40;;;;;;;25.38;77.11;102488.81;5007045;28;20054;-63
2023/06/23 10:35:04;;;;;;;6.00;2.72;;;;;;;25.61;73.07;102489.88;5011313;28;20528;-61
2023/06/23 10:37:30;;;;;;;4.82;2.70;;;;;;;25.27;70.53;102492.28;5015150;28;20022;-62
2023/06/23 10:40:05;;;;;;;3.85;2.67;;;;;;;25.54;66.03;102494.84;5006869;28;20032;-65
2023/06/23 10:42:36;;;;;;;3.63;2.35;;;;;;;25.63;62.28;102501.44;5014919;28;20029;-65
2023/06/23 10:45:02;;;;;;;4.32;2.65;;;;;;;25.68;67.13;102501.97;5018050;28;20031;-63
2023/06/23 10:47:28;;;;;;;3.63;3.00;;;;;;;25.79;67.40;102509.25;5019153;28;20029;-63
2023/06/23 10:49:55;;;;;;;5.43;2.95;;;;;;;25.88;65.88;102507.72;5004973;28;20385;-64
2023/06/23 10:52:21;;;;;;;4.57;3.67;;;;;;;25.90;65.91;102513.88;5021449;28;20025;-67
2023/06/23 10:54:46;;;;;;;4.90;3.00;;;;;;;26.00;66.16;102503.25;5018312;28;20382;-61
2023/06/23 10:57:13;;;;;;;4.18;3.30;;;;;;;26.14;66.44;102513.03;5015891;28;20071;-60
2023/06/23 10:59:57;;;;;;;4.97;2.92;;;;;;;26.39;63.88;102505.81;5017909;28;20029;-59
2023/06/23 11:02:23;;;;;;;4.25;2.72;;;;;;;26.45;61.96;102508.06;5013180;28;20033;-61
2023/06/23 11:05:16;;;;;;;3.53;2.53;;;;;;;26.48;61.99;102507.81;5023793;28;20034;-62
2023/06/23 11:08:04;;;;;;;3.20;2.90;;;;;;;26.53;65.33;102512.00;5027149;28;20033;-60
2023/06/23 11:10:48;;;;;;;3.13;2.63;;;;;;;26.77;62.57;102517.38;5027746;28;20026;-60